Time,TemperatureF,DewpointF,PressureIn,WindDirection,WindDirectionDegrees,WindSpeedMPH,WindSpeedGustMPH,Humidity,HourlyPrecipIn,Conditions,Clouds,dailyrainin,SoftwareType,DateUTC
2013-03-16 00:00:00,40.8,34.2,29.83,South,179,2.0,8.0,77,0.00,,,0.00,Weather View 32 v70,2013-03-16 04:00:00,
2013-03-16 00:05:00,40.8,34.2,29.83,SSW,201,1.0,8.0,77,0.00,,,0.00,Weather View 32 v70,2013-03-16 04:05:00,
2013-03-16 00:10:00,40.8,34.3,29.83,South,183,3.0,8.0,77,0.00,,,0.00,Weather View 32 v70,2013-03-16 04:10:00,
2013-03-16 00:15:00,40.5,34.1,29.83,SW,217,2.0,8.0,78,0.00,,,0.00,Weather View 32 v70,2013-03-16 04:15:00,
2013-03-16 00:20:00,40.3,34.1,29.83,SW,231,0.0,8.0,78,0.00,,,0.00,Weather View 32 v70,2013-03-16 04:20:00,
2013-03-16 00:25:00,39.9,33.9,29.83,South,184,1.0,8.0,79,0.00,,,0.00,Weather View 32 v70,2013-03-16 04:25:00,
2013-03-16 00:30:00,40.1,34.0,29.83,South,187,0.0,8.0,79,0.00,,,0.00,Weather View 32 v70,2013-03-16 04:30:00,
2013-03-16 00:35:00,40.1,34.1,29.83,South,187,0.0,5.0,79,0.00,,,0.00,Weather View 32 v70,2013-03-16 04:35:00,
2013-03-16 00:40:00,40.0,34.0,29.83,South,173,2.0,5.0,79,0.00,,,0.00,Weather View 32 v70,2013-03-16 04:40:00,
2013-03-16 00:50:00,39.5,33.8,29.83,SE,138,0.0,5.0,80,0.00,,,0.00,Weather View 32 v70,2013-03-16 04:50:00,
2013-03-16 01:00:00,39.1,33.9,29.83,SE,138,0.0,4.0,82,0.00,,,0.00,Weather View 32 v70,2013-03-16 05:00:00,
2013-03-16 01:05:00,39.0,33.9,29.82,South,172,1.0,4.0,82,0.00,,,0.00,Weather View 32 v70,2013-03-16 05:05:00,
2013-03-16 01:20:00,38.6,33.8,29.83,South,179,0.0,4.0,83,0.00,,,0.00,Weather View 32 v70,2013-03-16 05:20:00,
2013-03-16 01:30:00,38.4,33.9,29.83,SSW,198,2.0,4.0,84,0.00,,,0.00,Weather View 32 v70,2013-03-16 05:30:00,
2013-03-16 01:35:00,38.4,33.9,29.83,SSW,194,0.0,4.0,84,0.00,,,0.00,Weather View 32 v70,2013-03-16 05:35:00,
2013-03-16 01:40:00,38.4,33.9,29.82,SSW,194,0.0,4.0,84,0.00,,,0.00,Weather View 32 v70,2013-03-16 05:40:00,
2013-03-16 01:45:00,38.5,34.1,29.83,WNW,287,0.0,4.0,84,0.00,,,0.00,Weather View 32 v70,2013-03-16 05:45:00,
2013-03-16 01:55:00,39.0,34.5,29.83,South,184,0.0,7.0,84,0.00,,,0.00,Weather View 32 v70,2013-03-16 05:55:00,
2013-03-16 02:00:00,38.9,34.4,29.83,SSE,158,3.0,7.0,84,0.00,,,0.00,Weather View 32 v70,2013-03-16 06:00:00,
2013-03-16 02:05:00,39.1,34.8,29.83,South,173,3.0,7.0,84,0.00,,,0.00,Weather View 32 v70,2013-03-16 06:05:00,
2013-03-16 02:10:00,39.1,35.0,29.83,SSE,149,4.0,7.0,85,0.00,,,0.00,Weather View 32 v70,2013-03-16 06:10:00,
2013-03-16 02:15:00,40.2,36.5,29.82,South,181,9.0,10.0,86,0.00,,,0.00,Weather View 32 v70,2013-03-16 06:15:00,
2013-03-16 02:25:00,43.7,38.3,29.82,South,186,4.0,11.0,81,0.00,,,0.00,Weather View 32 v70,2013-03-16 06:25:00,
2013-03-16 02:35:00,45.0,39.3,29.82,SSW,203,7.0,11.0,80,0.00,,,0.00,Weather View 32 v70,2013-03-16 06:35:00,
2013-03-16 02:40:00,46.1,40.1,29.82,South,177,6.0,11.0,79,0.00,,,0.00,Weather View 32 v70,2013-03-16 06:40:00,
2013-03-16 02:50:00,48.1,41.1,29.82,SSW,204,5.0,11.0,77,0.00,,,0.00,Weather View 32 v70,2013-03-16 06:50:00,
2013-03-16 03:00:00,49.4,41.3,29.82,SSW,204,8.0,11.0,74,0.00,,,0.00,Weather View 32 v70,2013-03-16 07:00:00,
2013-03-16 03:10:00,50.1,41.4,29.82,SW,221,5.0,11.0,72,0.00,,,0.00,Weather View 32 v70,2013-03-16 07:10:00,
2013-03-16 03:15:00,50.1,41.4,29.81,SW,217,3.0,11.0,72,0.00,,,0.00,Weather View 32 v70,2013-03-16 07:15:00,
2013-03-16 03:20:00,49.9,41.3,29.81,WSW,252,4.0,10.0,72,0.00,,,0.00,Weather View 32 v70,2013-03-16 07:20:00,
2013-03-16 03:30:00,49.5,40.9,29.81,SSW,205,6.0,10.0,72,0.00,,,0.00,Weather View 32 v70,2013-03-16 07:30:00,
2013-03-16 03:35:00,49.2,40.8,29.81,SSW,212,6.0,10.0,73,0.00,,,0.00,Weather View 32 v70,2013-03-16 07:35:00,
2013-03-16 03:40:00,48.7,40.6,29.81,West,262,0.0,10.0,74,0.00,,,0.00,Weather View 32 v70,2013-03-16 07:40:00,
2013-03-16 03:45:00,48.5,40.5,29.81,SSE,165,3.0,9.0,74,0.00,,,0.00,Weather View 32 v70,2013-03-16 07:45:00,
2013-03-16 03:50:00,48.3,40.3,29.80,SE,145,3.0,9.0,74,0.00,,,0.00,Weather View 32 v70,2013-03-16 07:50:00,
2013-03-16 03:55:00,48.3,40.3,29.80,SSE,156,2.0,9.0,74,0.00,,,0.00,Weather View 32 v70,2013-03-16 07:55:00,
2013-03-16 04:00:00,48.3,40.4,29.79,SSE,155,2.0,9.0,74,0.00,,,0.00,Weather View 32 v70,2013-03-16 08:00:00,
2013-03-16 04:10:00,47.5,40.0,29.79,SE,138,0.0,8.0,75,0.00,,,0.00,Weather View 32 v70,2013-03-16 08:10:00,
2013-03-16 04:15:00,47.3,39.9,29.79,SE,138,0.0,7.0,76,0.00,,,0.00,Weather View 32 v70,2013-03-16 08:15:00,
2013-03-16 04:20:00,47.1,39.9,29.78,SE,138,0.0,7.0,76,0.00,,,0.00,Weather View 32 v70,2013-03-16 08:20:00,
2013-03-16 04:30:00,46.4,39.6,29.78,SE,138,0.0,7.0,77,0.00,,,0.00,Weather View 32 v70,2013-03-16 08:30:00,
2013-03-16 04:35:00,46.1,39.5,29.77,SE,138,0.0,7.0,78,0.00,,,0.00,Weather View 32 v70,2013-03-16 08:35:00,
2013-03-16 04:40:00,45.8,39.5,29.77,SSW,200,5.0,7.0,78,0.00,,,0.00,Weather View 32 v70,2013-03-16 08:40:00,
2013-03-16 04:45:00,45.4,39.3,29.77,SW,214,3.0,7.0,79,0.00,,,0.00,Weather View 32 v70,2013-03-16 08:45:00,
2013-03-16 04:50:00,45.0,39.1,29.78,SSW,207,4.0,7.0,80,0.00,,,0.00,Weather View 32 v70,2013-03-16 08:50:00,
2013-03-16 04:55:00,44.7,39.0,29.77,South,176,2.0,7.0,80,0.00,,,0.00,Weather View 32 v70,2013-03-16 08:55:00,
2013-03-16 05:05:00,44.3,39.0,29.77,SW,235,0.0,7.0,82,0.00,,,0.00,Weather View 32 v70,2013-03-16 09:05:00,
2013-03-16 05:10:00,43.8,38.6,29.77,SE,136,2.0,7.0,82,0.00,,,0.00,Weather View 32 v70,2013-03-16 09:10:00,
2013-03-16 05:15:00,43.6,38.5,29.78,South,179,0.0,7.0,82,0.00,,,0.00,Weather View 32 v70,2013-03-16 09:15:00,
2013-03-16 05:20:00,43.1,38.3,29.78,South,179,0.0,7.0,83,0.00,,,0.00,Weather View 32 v70,2013-03-16 09:20:00,
2013-03-16 05:30:00,43.0,38.2,29.79,SW,218,0.0,7.0,83,0.00,,,0.00,Weather View 32 v70,2013-03-16 09:30:00,
2013-03-16 05:35:00,42.6,37.9,29.79,SSW,204,4.0,7.0,83,0.00,,,0.00,Weather View 32 v70,2013-03-16 09:35:00,
2013-03-16 05:40:00,42.6,38.0,29.80,SSW,201,5.0,6.0,84,0.00,,,0.00,Weather View 32 v70,2013-03-16 09:40:00,
2013-03-16 05:45:00,42.4,38.0,29.80,South,170,4.0,6.0,84,0.00,,,0.00,Weather View 32 v70,2013-03-16 09:45:00,
2013-03-16 05:50:00,42.2,38.0,29.80,South,191,4.0,7.0,85,0.00,,,0.00,Weather View 32 v70,2013-03-16 09:50:00,
2013-03-16 05:55:00,42.3,38.0,29.80,SSE,160,3.0,7.0,85,0.00,,,0.00,Weather View 32 v70,2013-03-16 09:55:00,
2013-03-16 06:05:00,42.2,37.8,29.79,South,176,3.0,7.0,84,0.00,,,0.00,Weather View 32 v70,2013-03-16 10:05:00,
2013-03-16 06:10:00,42.0,37.7,29.79,SSE,148,0.0,7.0,85,0.00,,,0.00,Weather View 32 v70,2013-03-16 10:10:00,
2013-03-16 06:15:00,41.7,37.5,29.79,SSE,148,0.0,7.0,85,0.00,,,0.00,Weather View 32 v70,2013-03-16 10:15:00,
2013-03-16 06:25:00,41.6,37.6,29.80,South,181,3.0,7.0,86,0.00,,,0.00,Weather View 32 v70,2013-03-16 10:25:00,
2013-03-16 06:30:00,41.7,37.7,29.79,SSW,193,5.0,7.0,86,0.00,,,0.00,Weather View 32 v70,2013-03-16 10:30:00,
2013-03-16 06:40:00,41.2,37.7,29.81,SSW,210,4.0,8.0,87,0.00,,,0.00,Weather View 32 v70,2013-03-16 10:40:00,
2013-03-16 06:45:00,41.2,38.0,29.81,South,181,3.0,8.0,88,0.00,,,0.00,Weather View 32 v70,2013-03-16 10:45:00,
2013-03-16 06:50:00,41.0,37.9,29.81,SE,143,2.0,8.0,89,0.00,,,0.00,Weather View 32 v70,2013-03-16 10:50:00,
2013-03-16 06:55:00,41.2,38.3,29.81,SSE,166,4.0,8.0,89,0.01,,,0.01,Weather View 32 v70,2013-03-16 10:55:00,
2013-03-16 07:05:00,41.5,38.9,29.81,SSE,148,0.0,8.0,90,0.01,,,0.01,Weather View 32 v70,2013-03-16 11:05:00,
2013-03-16 07:10:00,41.6,39.2,29.81,SSE,148,0.0,8.0,91,0.02,,,0.02,Weather View 32 v70,2013-03-16 11:10:00,
2013-03-16 07:20:00,41.4,39.3,29.81,SSE,148,0.0,8.0,92,0.03,,,0.03,Weather View 32 v70,2013-03-16 11:20:00,
2013-03-16 07:25:00,41.6,39.6,29.80,SSE,148,0.0,8.0,93,0.03,,,0.03,Weather View 32 v70,2013-03-16 11:25:00,
2013-03-16 07:30:00,41.5,39.7,29.80,SSW,200,0.0,8.0,93,0.03,,,0.03,Weather View 32 v70,2013-03-16 11:30:00,
2013-03-16 07:40:00,41.7,40.0,29.80,SSW,200,0.0,6.0,94,0.03,,,0.03,Weather View 32 v70,2013-03-16 11:40:00,
2013-03-16 07:45:00,41.9,40.3,29.80,SSW,200,0.0,6.0,94,0.03,,,0.03,Weather View 32 v70,2013-03-16 11:45:00,
2013-03-16 07:50:00,41.9,40.3,29.80,SSW,200,0.0,6.0,94,0.03,,,0.03,Weather View 32 v70,2013-03-16 11:50:00,
2013-03-16 08:00:00,41.9,40.5,29.80,SSW,200,0.0,6.0,95,0.02,,,0.03,Weather View 32 v70,2013-03-16 12:00:00,
2013-03-16 08:05:00,41.9,40.5,29.80,SSW,200,0.0,4.0,95,0.02,,,0.03,Weather View 32 v70,2013-03-16 12:05:00,
2013-03-16 08:10:00,41.9,40.6,29.82,SSW,200,0.0,4.0,95,0.01,,,0.03,Weather View 32 v70,2013-03-16 12:10:00,
2013-03-16 08:20:00,42.8,41.6,29.82,SE,139,0.0,4.0,96,0.04,,,0.07,Weather View 32 v70,2013-03-16 12:20:00,
2013-03-16 08:25:00,42.9,41.8,29.81,SE,139,0.0,4.0,96,0.04,,,0.07,Weather View 32 v70,2013-03-16 12:25:00,
2013-03-16 08:30:00,42.7,41.6,29.81,SE,139,0.0,3.0,96,0.04,,,0.07,Weather View 32 v70,2013-03-16 12:30:00,
2013-03-16 08:40:00,42.8,41.7,29.80,SE,139,0.0,3.0,96,0.04,,,0.07,Weather View 32 v70,2013-03-16 12:40:00,
2013-03-16 08:45:00,42.9,41.8,29.80,SE,139,0.0,3.0,96,0.04,,,0.07,Weather View 32 v70,2013-03-16 12:45:00,
2013-03-16 08:55:00,43.3,42.3,29.79,SSE,165,2.0,6.0,96,0.04,,,0.07,Weather View 32 v70,2013-03-16 12:55:00,
2013-03-16 09:00:00,43.5,42.5,29.79,South,179,5.0,6.0,96,0.04,,,0.07,Weather View 32 v70,2013-03-16 13:00:00,
2013-03-16 09:05:00,43.6,42.6,29.79,SSE,166,0.0,6.0,96,0.04,,,0.07,Weather View 32 v70,2013-03-16 13:05:00,
2013-03-16 09:15:00,44.1,43.1,29.78,SSW,205,0.0,6.0,96,0.02,,,0.07,Weather View 32 v70,2013-03-16 13:15:00,
2013-03-16 09:20:00,44.4,43.4,29.78,SSE,158,0.0,6.0,96,0.00,,,0.07,Weather View 32 v70,2013-03-16 13:20:00,
2013-03-16 09:25:00,44.8,43.8,29.78,SSE,158,0.0,6.0,96,0.00,,,0.07,Weather View 32 v70,2013-03-16 13:25:00,
2013-03-16 09:35:00,45.3,44.3,29.77,South,187,2.0,6.0,96,0.00,,,0.07,Weather View 32 v70,2013-03-16 13:35:00,
2013-03-16 09:40:00,45.8,44.8,29.77,SSE,159,0.0,6.0,96,0.00,,,0.07,Weather View 32 v70,2013-03-16 13:40:00,
2013-03-16 09:50:00,46.5,45.5,29.77,SSW,211,5.0,7.0,96,0.00,,,0.07,Weather View 32 v70,2013-03-16 13:50:00,
2013-03-16 09:55:00,46.9,45.8,29.77,SW,224,1.0,7.0,96,0.00,,,0.07,Weather View 32 v70,2013-03-16 13:55:00,
2013-03-16 10:00:00,47.4,46.2,29.76,SSW,208,0.0,7.0,96,0.00,,,0.07,Weather View 32 v70,2013-03-16 14:00:00,
2013-03-16 10:10:00,48.0,46.7,29.76,SSW,208,0.0,7.0,95,0.00,,,0.07,Weather View 32 v70,2013-03-16 14:10:00,
2013-03-16 10:15:00,48.2,46.7,29.76,SSW,208,0.0,7.0,94,0.00,,,0.07,Weather View 32 v70,2013-03-16 14:15:00,
2013-03-16 10:20:00,48.5,46.8,29.75,SSW,208,0.0,7.0,94,0.00,,,0.07,Weather View 32 v70,2013-03-16 14:20:00,
2013-03-16 10:30:00,48.9,47.0,29.75,SSW,212,1.0,7.0,93,0.00,,,0.07,Weather View 32 v70,2013-03-16 14:30:00,
2013-03-16 10:35:00,48.9,47.0,29.76,SSW,212,0.0,7.0,93,0.00,,,0.07,Weather View 32 v70,2013-03-16 14:35:00,
2013-03-16 10:40:00,49.1,47.2,29.76,SSW,212,0.0,7.0,93,0.00,,,0.07,Weather View 32 v70,2013-03-16 14:40:00,
2013-03-16 10:45:00,48.9,47.0,29.75,NE,48,4.0,7.0,93,0.00,,,0.07,Weather View 32 v70,2013-03-16 14:45:00,
2013-03-16 10:50:00,48.6,46.8,29.75,NE,46,0.0,6.0,94,0.00,,,0.07,Weather View 32 v70,2013-03-16 14:50:00,
2013-03-16 11:00:00,48.6,47.1,29.75,NE,46,0.0,6.0,95,0.00,,,0.07,Weather View 32 v70,2013-03-16 15:00:00,
2013-03-16 11:05:00,49.1,47.8,29.74,NE,46,0.0,6.0,95,0.00,,,0.07,Weather View 32 v70,2013-03-16 15:05:00,
2013-03-16 11:15:00,49.8,48.3,29.73,NE,46,0.0,6.0,95,0.00,,,0.07,Weather View 32 v70,2013-03-16 15:15:00,
2013-03-16 11:25:00,50.9,48.7,29.73,SSW,204,5.0,7.0,92,0.00,,,0.07,Weather View 32 v70,2013-03-16 15:25:00,
2013-03-16 11:30:00,51.2,48.4,29.72,South,190,0.0,7.0,90,0.00,,,0.07,Weather View 32 v70,2013-03-16 15:30:00,
2013-03-16 11:35:00,51.9,48.7,29.72,South,190,0.0,7.0,89,0.00,,,0.07,Weather View 32 v70,2013-03-16 15:35:00,
2013-03-16 11:40:00,52.2,48.3,29.72,South,190,0.0,7.0,87,0.00,,,0.07,Weather View 32 v70,2013-03-16 15:40:00,
2013-03-16 11:46:00,52.5,48.0,29.72,SSW,211,8.0,9.0,85,0.00,,,0.07,Weather View 32 v70,2013-03-16 15:46:00,
2013-03-16 11:55:00,52.9,48.2,29.72,SSW,212,8.0,11.0,84,0.00,,,0.07,Weather View 32 v70,2013-03-16 15:55:00,
2013-03-16 12:00:00,53.1,48.3,29.72,SW,226,7.0,11.0,84,0.00,,,0.07,Weather View 32 v70,2013-03-16 16:00:00,
2013-03-16 12:10:00,53.3,48.3,29.73,SSW,207,8.0,12.0,83,0.00,,,0.07,Weather View 32 v70,2013-03-16 16:10:00,
2013-03-16 12:15:00,53.3,48.3,29.73,South,190,8.0,15.0,83,0.00,,,0.07,Weather View 32 v70,2013-03-16 16:15:00,
2013-03-16 12:20:00,53.0,48.6,29.73,SSW,210,12.0,19.0,85,0.02,,,0.09,Weather View 32 v70,2013-03-16 16:20:00,
2013-03-16 12:25:00,52.3,48.6,29.73,SSW,205,11.0,19.0,87,0.03,,,0.10,Weather View 32 v70,2013-03-16 16:25:00,
2013-03-16 12:30:00,52.0,48.8,29.71,ESE,122,5.0,19.0,89,0.05,,,0.12,Weather View 32 v70,2013-03-16 16:30:00,
2013-03-16 12:40:00,51.7,49.5,29.68,SW,233,5.0,19.0,92,0.06,,,0.13,Weather View 32 v70,2013-03-16 16:40:00,
2013-03-16 12:45:00,51.6,49.7,29.69,SSW,200,14.0,19.0,93,0.06,,,0.13,Weather View 32 v70,2013-03-16 16:45:00,
2013-03-16 12:55:00,52.4,50.3,29.68,SSW,207,9.0,19.0,93,0.06,,,0.13,Weather View 32 v70,2013-03-16 16:55:00,
2013-03-16 13:00:00,53.0,50.9,29.67,SSE,167,8.0,19.0,93,0.06,,,0.13,Weather View 32 v70,2013-03-16 17:00:00,
2013-03-16 13:10:00,54.2,51.9,29.66,SSW,203,13.0,19.0,92,0.06,,,0.13,Weather View 32 v70,2013-03-16 17:10:00,
2013-03-16 13:15:00,54.7,52.1,29.66,SW,224,11.0,19.0,91,0.06,,,0.13,Weather View 32 v70,2013-03-16 17:15:00,
2013-03-16 13:20:00,55.8,53.5,29.66,SSW,207,11.0,18.0,92,0.04,,,0.13,Weather View 32 v70,2013-03-16 17:20:00,
2013-03-16 13:25:00,56.6,53.2,29.66,SW,214,13.0,18.0,88,0.03,,,0.13,Weather View 32 v70,2013-03-16 17:25:00,
2013-03-16 13:30:00,57.4,53.7,29.66,SSW,193,12.0,18.0,88,0.01,,,0.13,Weather View 32 v70,2013-03-16 17:30:00,
2013-03-16 13:35:00,58.3,53.8,29.66,SSW,194,15.0,18.0,85,0.00,,,0.13,Weather View 32 v70,2013-03-16 17:35:00,
2013-03-16 13:45:00,58.9,52.8,29.65,South,187,10.0,20.0,80,0.00,,,0.13,Weather View 32 v70,2013-03-16 17:45:00,
2013-03-16 13:50:00,59.0,52.8,29.65,SSW,205,13.0,22.0,80,0.00,,,0.13,Weather View 32 v70,2013-03-16 17:50:00,
2013-03-16 14:00:00,60.2,54.0,29.64,SSW,194,18.0,22.0,80,0.00,,,0.13,Weather View 32 v70,2013-03-16 18:00:00,
2013-03-16 14:05:00,60.8,54.5,29.64,SW,214,7.0,22.0,80,0.00,,,0.13,Weather View 32 v70,2013-03-16 18:05:00,
2013-03-16 14:10:00,61.3,54.0,29.64,SSE,167,8.0,24.0,77,0.00,,,0.13,Weather View 32 v70,2013-03-16 18:10:00,
2013-03-16 14:20:00,62.0,54.3,29.63,SSW,197,18.0,24.0,76,0.00,,,0.13,Weather View 32 v70,2013-03-16 18:20:00,
2013-03-16 14:25:00,62.3,54.7,29.63,South,170,12.0,24.0,76,0.00,,,0.13,Weather View 32 v70,2013-03-16 18:25:00,
2013-03-16 14:30:00,62.7,55.1,29.63,East,80,10.0,24.0,76,0.00,,,0.13,Weather View 32 v70,2013-03-16 18:30:00,
2013-03-16 14:35:00,63.1,55.1,29.62,South,177,13.0,24.0,75,0.00,,,0.13,Weather View 32 v70,2013-03-16 18:35:00,
2013-03-16 14:40:00,63.2,54.6,29.63,SSE,158,16.0,24.0,74,0.00,,,0.13,Weather View 32 v70,2013-03-16 18:40:00,
2013-03-16 14:45:00,63.0,54.1,29.63,SSW,198,14.0,26.0,73,0.00,,,0.13,Weather View 32 v70,2013-03-16 18:45:00,
2013-03-16 14:50:00,62.4,53.9,29.63,SSW,201,16.0,26.0,74,0.00,,,0.13,Weather View 32 v70,2013-03-16 18:50:00,
2013-03-16 15:00:00,61.6,53.8,29.63,SSW,205,18.0,28.0,76,0.00,,,0.13,Weather View 32 v70,2013-03-16 19:00:00,
2013-03-16 15:05:00,61.3,53.6,29.63,SSE,150,8.0,28.0,76,0.00,,,0.13,Weather View 32 v70,2013-03-16 19:05:00,
2013-03-16 15:10:00,61.0,52.9,29.63,SSW,195,16.0,28.0,75,0.00,,,0.13,Weather View 32 v70,2013-03-16 19:10:00,
2013-03-16 15:20:00,60.9,53.1,29.63,South,191,20.0,28.0,76,0.00,,,0.13,Weather View 32 v70,2013-03-16 19:20:00,
2013-03-16 15:25:00,61.1,52.8,29.63,South,190,16.0,28.0,74,0.00,,,0.13,Weather View 32 v70,2013-03-16 19:25:00,
2013-03-16 15:30:00,61.2,52.9,29.63,South,190,15.0,28.0,74,0.00,,,0.13,Weather View 32 v70,2013-03-16 19:30:00,
2013-03-16 15:35:00,61.5,53.4,29.63,SSW,195,14.0,28.0,75,0.00,,,0.13,Weather View 32 v70,2013-03-16 19:35:00,
2013-03-16 15:40:00,61.6,53.1,29.63,South,180,22.0,30.0,74,0.00,,,0.13,Weather View 32 v70,2013-03-16 19:40:00,
2013-03-16 15:48:00,61.8,53.3,29.63,SSE,165,19.0,30.0,74,0.00,,,0.13,Weather View 32 v70,2013-03-16 19:48:00,
2013-03-16 15:55:00,61.8,53.2,29.63,South,187,17.0,30.0,74,0.00,,,0.13,Weather View 32 v70,2013-03-16 19:55:00,
2013-03-16 16:00:00,61.9,53.5,29.63,South,179,14.0,30.0,74,0.00,,,0.13,Weather View 32 v70,2013-03-16 20:00:00,
2013-03-16 16:10:00,61.7,53.5,29.64,SSE,152,13.0,30.0,75,0.00,,,0.13,Weather View 32 v70,2013-03-16 20:10:00,
2013-03-16 16:15:00,61.7,53.7,29.64,SSW,204,14.0,30.0,75,0.00,,,0.13,Weather View 32 v70,2013-03-16 20:15:00,
2013-03-16 16:20:00,61.7,54.0,29.64,SSW,200,10.0,30.0,76,0.00,,,0.13,Weather View 32 v70,2013-03-16 20:20:00,
2013-03-16 16:30:00,62.0,54.4,29.64,South,190,8.0,30.0,76,0.00,,,0.13,Weather View 32 v70,2013-03-16 20:30:00,
2013-03-16 16:35:00,62.0,54.4,29.64,SSW,200,8.0,30.0,76,0.00,,,0.13,Weather View 32 v70,2013-03-16 20:35:00,
2013-03-16 16:40:00,62.0,54.4,29.65,SSW,205,5.0,30.0,76,0.00,,,0.13,Weather View 32 v70,2013-03-16 20:40:00,
2013-03-16 16:49:00,61.8,54.5,29.64,SE,136,5.0,24.0,77,0.00,,,0.13,Weather View 32 v70,2013-03-16 20:49:00,
2013-03-16 16:55:00,61.8,54.7,29.64,South,187,7.0,24.0,78,0.00,,,0.13,Weather View 32 v70,2013-03-16 20:55:00,
2013-03-16 17:00:00,61.7,54.5,29.64,SSW,204,5.0,19.0,77,0.00,,,0.13,Weather View 32 v70,2013-03-16 21:00:00,
2013-03-16 17:10:00,61.6,54.2,29.64,South,170,7.0,16.0,77,0.00,,,0.13,Weather View 32 v70,2013-03-16 21:10:00,
2013-03-16 17:15:00,61.5,54.2,29.64,SSE,156,5.0,15.0,77,0.00,,,0.13,Weather View 32 v70,2013-03-16 21:15:00,
2013-03-16 17:20:00,61.4,54.3,29.64,WSW,239,3.0,14.0,78,0.00,,,0.13,Weather View 32 v70,2013-03-16 21:20:00,
2013-03-16 17:25:00,61.2,54.3,29.65,SW,218,4.0,13.0,78,0.00,,,0.13,Weather View 32 v70,2013-03-16 21:25:00,
2013-03-16 17:30:00,61.0,54.3,29.65,SW,218,7.0,13.0,79,0.00,,,0.13,Weather View 32 v70,2013-03-16 21:30:00,
2013-03-16 17:35:00,60.8,54.2,29.66,WSW,240,1.0,13.0,79,0.00,,,0.13,Weather View 32 v70,2013-03-16 21:35:00,
2013-03-16 17:40:00,60.9,54.2,29.66,SSW,197,0.0,13.0,79,0.00,,,0.13,Weather View 32 v70,2013-03-16 21:40:00,
2013-03-16 17:49:00,60.8,54.0,29.66,SSW,210,5.0,13.0,78,0.00,,,0.13,Weather View 32 v70,2013-03-16 21:49:00,
2013-03-16 17:55:00,60.6,54.0,29.67,SE,139,0.0,13.0,79,0.00,,,0.13,Weather View 32 v70,2013-03-16 21:55:00,
2013-03-16 18:00:00,60.5,54.1,29.66,North,356,0.0,13.0,80,0.00,,,0.13,Weather View 32 v70,2013-03-16 22:00:00,
2013-03-16 18:10:00,60.2,54.0,29.67,North,359,5.0,10.0,80,0.00,,,0.13,Weather View 32 v70,2013-03-16 22:10:00,
2013-03-16 18:15:00,59.8,53.5,29.68,North,356,4.0,10.0,80,0.00,,,0.13,Weather View 32 v70,2013-03-16 22:15:00,
2013-03-16 18:25:00,58.6,52.4,29.68,NNW,339,6.0,10.0,80,0.00,,,0.13,Weather View 32 v70,2013-03-16 22:25:00,
2013-03-16 18:30:00,57.8,51.9,29.68,NNW,346,5.0,10.0,81,0.00,,,0.13,Weather View 32 v70,2013-03-16 22:30:00,
2013-03-16 18:40:00,56.4,51.1,29.70,NNE,24,7.0,10.0,83,0.00,,,0.13,Weather View 32 v70,2013-03-16 22:40:00,
2013-03-16 18:45:00,55.8,50.8,29.70,NNW,343,3.0,10.0,83,0.00,,,0.13,Weather View 32 v70,2013-03-16 22:45:00,
2013-03-16 18:50:00,55.5,50.6,29.70,North,354,3.0,10.0,84,0.00,,,0.13,Weather View 32 v70,2013-03-16 22:50:00,
2013-03-16 19:00:00,54.5,49.5,29.71,NNE,17,6.0,14.0,83,0.00,,,0.13,Weather View 32 v70,2013-03-16 23:00:00,
2013-03-16 19:05:00,54.0,48.8,29.71,North,7,9.0,14.0,83,0.00,,,0.13,Weather View 32 v70,2013-03-16 23:05:00,
2013-03-16 19:15:00,52.9,48.1,29.72,North,350,4.0,14.0,84,0.00,,,0.13,Weather View 32 v70,2013-03-16 23:15:00,
2013-03-16 19:20:00,52.2,47.0,29.72,NNW,336,6.0,14.0,82,0.00,,,0.13,Weather View 32 v70,2013-03-16 23:20:00,
2013-03-16 19:25:00,51.3,46.2,29.73,NNW,342,6.0,14.0,83,0.00,,,0.13,Weather View 32 v70,2013-03-16 23:25:00,
2013-03-16 19:30:00,50.3,45.5,29.74,North,349,8.0,14.0,83,0.00,,,0.13,Weather View 32 v70,2013-03-16 23:30:00,
2013-03-16 19:35:00,49.1,44.5,29.74,NNW,343,10.0,14.0,84,0.00,,,0.13,Weather View 32 v70,2013-03-16 23:35:00,
2013-03-16 19:40:00,48.5,44.1,29.75,NW,315,8.0,14.0,85,0.00,,,0.13,Weather View 32 v70,2013-03-16 23:40:00,
2013-03-16 19:50:00,47.2,43.2,29.76,NNW,336,7.0,14.0,86,0.00,,,0.13,Weather View 32 v70,2013-03-16 23:50:00,
2013-03-16 19:55:00,46.5,42.7,29.76,NNW,345,9.0,14.0,86,0.00,,,0.13,Weather View 32 v70,2013-03-16 23:55:00,
2013-03-16 20:00:00,46.2,42.3,29.77,NNW,332,4.0,14.0,86,0.00,,,0.13,Weather View 32 v70,2013-03-17 00:00:00,
2013-03-16 20:05:00,45.6,41.8,29.78,NNE,28,6.0,14.0,87,0.00,,,0.13,Weather View 32 v70,2013-03-17 00:05:00,
2013-03-16 20:10:00,45.2,41.5,29.78,NW,312,8.0,14.0,87,0.00,,,0.13,Weather View 32 v70,2013-03-17 00:10:00,
2013-03-16 20:15:00,44.7,41.1,29.78,WNW,291,7.0,14.0,87,0.00,,,0.13,Weather View 32 v70,2013-03-17 00:15:00,
2013-03-16 20:20:00,44.4,40.9,29.79,NNW,336,7.0,13.0,88,0.00,,,0.13,Weather View 32 v70,2013-03-17 00:20:00,
2013-03-16 20:25:00,44.3,41.0,29.79,North,11,3.0,13.0,88,0.00,,,0.13,Weather View 32 v70,2013-03-17 00:25:00,
2013-03-16 20:30:00,44.0,40.9,29.80,NW,316,0.0,13.0,89,0.00,,,0.13,Weather View 32 v70,2013-03-17 00:30:00,
2013-03-16 20:35:00,44.0,41.0,29.80,NNW,328,5.0,13.0,89,0.00,,,0.13,Weather View 32 v70,2013-03-17 00:35:00,
2013-03-16 20:40:00,43.9,41.0,29.81,North,357,0.0,13.0,90,0.00,,,0.13,Weather View 32 v70,2013-03-17 00:40:00,
2013-03-16 20:45:00,43.8,41.0,29.81,NNW,330,0.0,13.0,90,0.00,,,0.13,Weather View 32 v70,2013-03-17 00:45:00,
2013-03-16 20:50:00,43.8,41.0,29.81,NNW,345,5.0,13.0,90,0.00,,,0.13,Weather View 32 v70,2013-03-17 00:50:00,
2013-03-16 20:55:00,43.6,40.8,29.81,NNW,343,5.0,13.0,90,0.00,,,0.13,Weather View 32 v70,2013-03-17 00:55:00,
2013-03-16 21:05:00,43.4,40.7,29.83,North,359,0.0,11.0,90,0.00,,,0.13,Weather View 32 v70,2013-03-17 01:05:00,
2013-03-16 21:10:00,43.1,40.4,29.83,NNW,342,4.0,11.0,90,0.00,,,0.13,Weather View 32 v70,2013-03-17 01:10:00,
2013-03-16 21:20:00,42.9,40.3,29.84,North,350,0.0,9.0,91,0.00,,,0.13,Weather View 32 v70,2013-03-17 01:20:00,
2013-03-16 21:25:00,42.7,40.2,29.84,NNW,330,0.0,9.0,91,0.00,,,0.13,Weather View 32 v70,2013-03-17 01:25:00,
2013-03-16 21:35:00,42.5,40.1,29.84,NNW,343,3.0,9.0,91,0.00,,,0.13,Weather View 32 v70,2013-03-17 01:35:00,
2013-03-16 21:40:00,42.3,40.0,29.85,NNW,339,2.0,9.0,92,0.00,,,0.13,Weather View 32 v70,2013-03-17 01:40:00,
2013-03-16 21:45:00,42.3,40.1,29.85,NNW,335,4.0,9.0,92,0.00,,,0.13,Weather View 32 v70,2013-03-17 01:45:00,
2013-03-16 21:50:00,42.1,39.9,29.85,NW,321,5.0,9.0,92,0.00,,,0.13,Weather View 32 v70,2013-03-17 01:50:00,
2013-03-16 21:55:00,42.1,39.9,29.86,North,357,4.0,9.0,92,0.00,,,0.13,Weather View 32 v70,2013-03-17 01:55:00,
2013-03-16 22:00:00,42.0,39.8,29.86,NNE,23,2.0,9.0,92,0.00,,,0.13,Weather View 32 v70,2013-03-17 02:00:00,
2013-03-16 22:10:00,41.6,39.6,29.87,North,1,3.0,8.0,93,0.00,,,0.13,Weather View 32 v70,2013-03-17 02:10:00,
2013-03-16 22:15:00,41.3,39.4,29.87,NNW,347,2.0,8.0,93,0.00,,,0.13,Weather View 32 v70,2013-03-17 02:15:00,
2013-03-16 22:20:00,41.2,39.3,29.87,NNW,347,6.0,8.0,93,0.00,,,0.13,Weather View 32 v70,2013-03-17 02:20:00,
2013-03-16 22:25:00,41.1,39.3,29.88,North,359,5.0,8.0,93,0.00,,,0.13,Weather View 32 v70,2013-03-17 02:25:00,
2013-03-16 22:30:00,41.1,39.3,29.88,NNE,24,0.0,8.0,93,0.00,,,0.13,Weather View 32 v70,2013-03-17 02:30:00,
2013-03-16 22:35:00,40.9,39.1,29.88,ESE,114,0.0,8.0,93,0.00,,,0.13,Weather View 32 v70,2013-03-17 02:35:00,
2013-03-16 22:40:00,40.8,39.0,29.88,ESE,107,0.0,8.0,93,0.00,,,0.13,Weather View 32 v70,2013-03-17 02:40:00,
2013-03-16 22:45:00,40.6,38.9,29.89,ESE,107,0.0,8.0,94,0.00,,,0.13,Weather View 32 v70,2013-03-17 02:45:00,
2013-03-16 22:52:00,40.6,38.9,29.89,ESE,107,0.0,8.0,94,0.00,,,0.13,Weather View 32 v70,2013-03-17 02:52:00,
2013-03-16 23:00:00,40.6,38.9,29.89,ESE,107,0.0,8.0,94,0.00,,,0.13,Weather View 32 v70,2013-03-17 03:00:00,
2013-03-16 23:10:00,40.5,38.7,29.88,ESE,107,0.0,8.0,93,0.00,,,0.13,Weather View 32 v70,2013-03-17 03:10:00,
2013-03-16 23:15:00,40.5,38.7,29.89,ESE,107,0.0,8.0,93,0.00,,,0.13,Weather View 32 v70,2013-03-17 03:15:00,
2013-03-16 23:25:00,40.1,38.3,29.89,North,11,3.0,6.0,93,0.00,,,0.13,Weather View 32 v70,2013-03-17 03:25:00,
2013-03-16 23:30:00,39.9,38.2,29.89,North,3,4.0,6.0,94,0.00,,,0.13,Weather View 32 v70,2013-03-17 03:30:00,
2013-03-16 23:40:00,39.4,37.9,29.89,NW,321,0.0,6.0,94,0.00,,,0.13,Weather View 32 v70,2013-03-17 03:40:00,
2013-03-16 23:50:00,39.2,37.8,29.90,NW,321,0.0,6.0,95,0.00,,,0.13,Weather View 32 v70,2013-03-17 03:50:00,
2013-03-16 23:55:00,39.2,37.8,29.90,North,8,0.0,6.0,95,0.00,,,0.13,Weather View 32 v70,2013-03-17 03:55:00,